Time;durP1;ratioP1;P1;durP2;ratioP2;P2;SDS_P1;SDS_P2;PMS_P1;PMS_P2;Temp;Humidity;BMP_temperature;BMP_pressure;BME280_temperature;BME280_humidity;BME280_pressure;Samples;Min_cycle;Max_cycle;Signal;HPM_P1;HPM_P2
2021/11/13 00:01:12;;;;;;;26.85;17.10;;;9.00;99.90;;;;;;4985661;28;20050;-51
2021/11/13 00:03:38;;;;;;;29.30;18.55;;;9.10;99.90;;;;;;4984166;28;20405;-51
2021/11/13 00:06:04;;;;;;;25.95;17.05;;;9.10;99.90;;;;;;4986248;28;20081;-51
2021/11/13 00:08:29;;;;;;;27.10;16.88;;;9.10;99.90;;;;;;4989466;28;20050;-50
2021/11/13 00:10:55;;;;;;;31.15;17.08;;;9.00;99.90;;;;;;4993974;28;20046;-51
2021/11/13 00:13:24;;;;;;;31.73;18.30;;;9.10;99.90;;;;;;4994825;28;20026;-50
2021/11/13 00:15:50;;;;;;;28.20;17.77;;;9.10;99.90;;;;;;4987015;28;20512;-51
2021/11/13 00:18:15;;;;;;;31.17;17.23;;;9.10;99.90;;;;;;4983752;28;20113;-51
2021/11/13 00:20:41;;;;;;;27.77;18.00;;;9.10;99.90;;;;;;4998141;28;20038;-51
2021/11/13 00:23:08;;;;;;;29.17;17.63;;;9.10;99.90;;;;;;4986878;28;20042;-49
2021/11/13 00:25:33;;;;;;;29.23;18.38;;;9.10;99.90;;;;;;4995647;28;20042;-50
2021/11/13 00:27:59;;;;;;;35.90;18.90;;;9.20;99.90;;;;;;4996418;28;20521;-51
2021/11/13 00:30:25;;;;;;;32.53;18.83;;;9.10;99.90;;;;;;4994791;28;20495;-50
2021/11/13 00:32:51;;;;;;;33.28;18.88;;;9.10;99.90;;;;;;4990171;28;20380;-52
2021/11/13 00:35:17;;;;;;;30.17;19.27;;;9.00;99.90;;;;;;4986124;28;20100;-51
2021/11/13 00:37:42;;;;;;;30.08;18.40;;;9.00;99.90;;;;;;4992201;28;20038;-52
2021/11/13 00:40:10;;;;;;;30.08;18.58;;;9.00;99.90;;;;;;4972426;28;20048;-53
2021/11/13 00:42:36;;;;;;;31.25;19.67;;;9.10;99.90;;;;;;4995005;28;20137;-51
2021/11/13 00:45:02;;;;;;;31.17;19.27;;;9.00;99.90;;;;;;4983501;28;20031;-50
2021/11/13 00:47:28;;;;;;;35.75;20.63;;;9.00;99.90;;;;;;4989969;28;20045;-50
2021/11/13 00:49:54;;;;;;;32.60;19.88;;;9.00;99.90;;;;;;4982759;28;20034;-50
2021/11/13 00:52:19;;;;;;;33.70;21.50;;;9.00;99.90;;;;;;4974617;28;20043;-51
2021/11/13 00:54:45;;;;;;;34.47;21.13;;;9.00;99.90;;;;;;4975603;28;20048;-52
2021/11/13 00:57:10;;;;;;;34.33;20.63;;;9.00;99.90;;;;;;4982439;28;20031;-51
2021/11/13 00:59:37;;;;;;;35.38;22.05;;;9.00;99.90;;;;;;4988406;28;20041;-50
2021/11/13 01:02:07;;;;;;;34.42;22.02;;;8.90;99.90;;;;;;4989464;28;20045;-51
2021/11/13 01:04:34;;;;;;;33.90;22.05;;;8.90;99.90;;;;;;4983018;28;20056;-50
2021/11/13 01:07:00;;;;;;;31.73;21.30;;;8.90;99.90;;;;;;4985956;28;20038;-50
2021/11/13 01:09:25;;;;;;;37.70;22.27;;;8.90;99.90;;;;;;4993832;28;20088;-52
2021/11/13 01:11:51;;;;;;;34.75;21.55;;;8.90;99.90;;;;;;4990630;28;20046;-50
2021/11/13 01:14:16;;;;;;;37.30;21.58;;;9.00;99.90;;;;;;4990817;28;20049;-51
2021/11/13 01:16:42;;;;;;;38.25;23.17;;;9.00;99.90;;;;;;4984024;28;20034;-51
2021/11/13 01:19:08;;;;;;;35.88;22.38;;;8.90;99.90;;;;;;4993310;28;20402;-50
2021/11/13 01:21:33;;;;;;;36.03;21.75;;;9.00;99.90;;;;;;4993763;28;20498;-51
2021/11/13 01:23:59;;;;;;;34.85;22.02;;;9.00;99.90;;;;;;4985338;28;20378;-51
2021/11/13 01:26:25;;;;;;;38.35;22.60;;;9.00;99.90;;;;;;4994922;28;20510;-51
2021/11/13 01:28:51;;;;;;;34.80;21.48;;;9.00;99.90;;;;;;4968253;28;20043;-50
2021/11/13 01:31:17;;;;;;;36.28;22.10;;;9.00;99.90;;;;;;4991657;28;20365;-51
2021/11/13 01:33:44;;;;;;;34.45;22.30;;;9.00;99.90;;;;;;4973355;28;20197;-51
2021/11/13 01:36:10;;;;;;;33.80;20.70;;;9.00;99.90;;;;;;4989800;28;20034;-52
2021/11/13 01:38:37;;;;;;;35.75;21.90;;;9.00;99.90;;;;;;4993050;28;20410;-51
2021/11/13 01:41:05;;;;;;;32.47;20.15;;;9.00;99.90;;;;;;4989527;28;20042;-50
2021/11/13 01:43:33;;;;;;;34.80;21.17;;;9.00;99.90;;;;;;4991947;28;20113;-51
2021/11/13 01:46:01;;;;;;;33.42;20.25;;;9.00;99.90;;;;;;4983002;28;20502;-51
2021/11/13 01:48:26;;;;;;;30.45;20.02;;;9.00;99.90;;;;;;4992655;28;20504;-52
2021/11/13 01:50:52;;;;;;;36.70;21.00;;;9.00;99.90;;;;;;4993124;28;20113;-50
2021/11/13 01:53:18;;;;;;;29.10;19.17;;;9.00;99.90;;;;;;4990947;28;20160;-51
2021/11/13 01:55:43;;;;;;;29.30;19.25;;;9.00;99.90;;;;;;4990972;28;20027;-50
2021/11/13 01:58:12;;;;;;;29.27;18.52;;;9.00;99.90;;;;;;4987112;28;20049;-50
2021/11/13 02:00:45;;;;;;;31.77;18.88;;;9.00;99.90;;;;;;4982728;28;20506;-51
2021/11/13 02:03:12;;;;;;;30.15;19.90;;;9.10;99.90;;;;;;4992638;28;20509;-50
2021/11/13 02:05:38;;;;;;;31.10;19.52;;;9.10;99.90;;;;;;4983384;28;20050;-49
2021/11/13 02:08:04;;;;;;;29.90;18.92;;;9.10;99.90;;;;;;4989565;28;20038;-50
2021/11/13 02:10:30;;;;;;;27.38;17.85;;;9.10;99.90;;;;;;4992204;28;20157;-50
2021/11/13 02:12:57;;;;;;;27.33;18.58;;;9.10;99.90;;;;;;4981945;28;20042;-51
2021/11/13 02:15:24;;;;;;;26.98;19.02;;;9.10;99.90;;;;;;4985591;28;20045;-51
2021/11/13 02:17:50;;;;;;;30.38;19.17;;;9.10;99.90;;;;;;4984974;28;20041;-51
2021/11/13 02:20:30;;;;;;;27.13;18.23;;;9.10;99.90;;;;;;4967027;28;20118;-50
2021/11/13 02:23:22;;;;;;;26.67;17.73;;;9.10;99.90;;;;;;4992631;28;20514;-51
2021/11/13 02:25:51;;;;;;;26.10;17.73;;;9.10;99.90;;;;;;4984722;28;20053;-51
2021/11/13 02:28:20;;;;;;;31.30;19.60;;;9.20;99.90;;;;;;4991598;28;20405;-50
2021/11/13 02:30:47;;;;;;;29.20;19.50;;;9.20;99.90;;;;;;4986098;28;20053;-51
2021/11/13 02:33:13;;;;;;;33.53;20.02;;;9.10;99.90;;;;;;4979298;28;20045;-51
2021/11/13 02:35:39;;;;;;;30.42;21.00;;;9.10;99.90;;;;;;4989156;28;20042;-50
2021/11/13 02:38:24;;;;;;;30.85;20.52;;;9.20;99.90;;;;;;4990237;28;20498;-51
2021/11/13 02:40:54;;;;;;;31.63;21.50;;;9.20;99.90;;;;;;4984036;28;20038;-51
2021/11/13 02:43:21;;;;;;;31.95;20.05;;;9.20;99.90;;;;;;4983405;28;20034;-52
2021/11/13 02:45:46;;;;;;;35.20;23.27;;;9.20;99.90;;;;;;4989672;28;20034;-51
2021/11/13 02:48:13;;;;;;;44.15;24.83;;;9.20;99.90;;;;;;4988012;28;20379;-51
2021/11/13 02:50:40;;;;;;;38.45;23.13;;;9.20;99.90;;;;;;4992116;28;20038;-51
2021/11/13 02:53:13;;;;;;;40.72;24.15;;;9.20;99.90;;;;;;4989070;28;20133;-51
2021/11/13 02:55:39;;;;;;;42.88;25.83;;;9.20;99.90;;;;;;4990410;28;20030;-50
2021/11/13 02:58:05;;;;;;;43.00;24.52;;;9.30;99.90;;;;;;4978303;28;20049;-51
2021/11/13 03:00:31;;;;;;;34.92;22.98;;;9.30;99.90;;;;;;4991054;28;20042;-51
2021/11/13 03:02:57;;;;;;;38.45;24.48;;;9.30;99.90;;;;;;4984481;28;20426;-51
2021/11/13 03:05:29;;;;;;;40.30;25.08;;;9.30;99.90;;;;;;4983391;28;20044;-52
2021/11/13 03:07:57;;;;;;;44.15;26.58;;;9.30;99.90;;;;;;4983924;28;20042;-50
2021/11/13 03:10:26;;;;;;;39.42;24.45;;;9.30;99.90;;;;;;4991235;28;20034;-51
2021/11/13 03:12:52;;;;;;;41.22;26.02;;;9.30;99.90;;;;;;4991760;28;20482;-52
2021/11/13 03:15:20;;;;;;;44.22;25.10;;;9.30;99.90;;;;;;4987542;28;20031;-50
2021/11/13 03:17:46;;;;;;;40.00;24.35;;;9.30;99.90;;;;;;4981326;28;20038;-51
2021/11/13 03:20:15;;;;;;;38.20;24.25;;;9.20;99.90;;;;;;4991337;28;20513;-51
2021/11/13 03:22:41;;;;;;;39.78;24.80;;;9.30;99.90;;;;;;4999054;28;20030;-53
2021/11/13 03:25:10;;;;;;;41.15;25.17;;;9.30;99.90;;;;;;4991270;28;20038;-53
2021/11/13 03:27:37;;;;;;;42.08;23.88;;;9.40;99.90;;;;;;4989905;28;20041;-51
2021/11/13 03:30:05;;;;;;;39.83;23.63;;;9.30;99.90;;;;;;4984856;28;20403;-50
2021/11/13 03:32:32;;;;;;;37.72;22.90;;;9.40;99.90;;;;;;4995768;28;20048;-51
2021/11/13 03:34:58;;;;;;;42.17;24.52;;;9.40;99.90;;;;;;4989520;28;20042;-50
2021/11/13 03:37:24;;;;;;;35.45;22.60;;;9.40;99.90;;;;;;4988530;28;20041;-51
2021/11/13 03:39:49;;;;;;;35.15;22.23;;;9.40;99.90;;;;;;4984480;28;20038;-50
2021/11/13 03:42:15;;;;;;;31.50;21.90;;;9.50;99.90;;;;;;4988006;28;20453;-50
2021/11/13 03:44:40;;;;;;;34.58;22.73;;;9.50;99.90;;;;;;4989971;28;20042;-50
2021/11/13 03:47:06;;;;;;;36.88;22.92;;;9.50;99.90;;;;;;4963518;28;20046;-51
2021/11/13 03:49:32;;;;;;;36.25;22.38;;;9.40;99.90;;;;;;4983390;28;20042;-51
2021/11/13 03:51:59;;;;;;;31.75;21.38;;;9.50;99.90;;;;;;4994688;28;20035;-52
2021/11/13 03:54:25;;;;;;;32.88;22.67;;;9.40;99.90;;;;;;4987216;28;20458;-52
2021/11/13 03:56:51;;;;;;;32.22;22.25;;;9.50;99.90;;;;;;4982766;28;20588;-50
2021/11/13 03:59:17;;;;;;;32.70;21.65;;;9.50;99.90;;;;;;4991773;28;20054;-51
2021/11/13 04:01:42;;;;;;;34.67;22.20;;;9.50;99.90;;;;;;5017526;23;20045;-50
2021/11/13 04:04:08;;;;;;;36.30;22.95;;;9.50;99.90;;;;;;5013132;28;20045;-53
2021/11/13 04:06:33;;;;;;;36.30;23.00;;;9.50;99.90;;;;;;5003115;28;20117;-51
2021/11/13 04:08:59;;;;;;;35.17;22.08;;;9.50;99.90;;;;;;5008323;28;20512;-53
2021/11/13 04:11:24;;;;;;;35.13;23.35;;;9.50;99.90;;;;;;5011189;28;20183;-51
2021/11/13 04:13:50;;;;;;;36.60;23.90;;;9.50;99.90;;;;;;5011395;28;20042;-51
2021/11/13 04:16:16;;;;;;;36.38;22.50;;;9.50;99.90;;;;;;5010411;28;20041;-50
2021/11/13 04:18:41;;;;;;;40.97;24.42;;;9.50;99.90;;;;;;5003672;28;20038;-51
2021/11/13 04:21:07;;;;;;;37.72;23.75;;;9.50;99.90;;;;;;5001980;28;20029;-52
2021/11/13 04:23:33;;;;;;;36.38;24.00;;;9.50;99.90;;;;;;5002558;28;20038;-52
2021/11/13 04:25:59;;;;;;;39.70;24.55;;;9.50;99.90;;;;;;5010290;28;20033;-52
2021/11/13 04:28:24;;;;;;;36.30;22.83;;;9.60;99.90;;;;;;5010733;28;20042;-49
2021/11/13 04:30:50;;;;;;;35.92;21.98;;;9.50;99.90;;;;;;5011039;28;20042;-49
2021/11/13 04:33:16;;;;;;;36.13;23.00;;;9.50;99.90;;;;;;5010280;28;20037;-53
2021/11/13 04:38:29;;;;;;;33.83;23.00;;;9.50;99.90;;;;;;4993112;28;20125;-52
2021/11/13 04:40:57;;;;;;;39.08;22.92;;;9.50;99.90;;;;;;5001130;28;20096;-51
2021/11/13 04:43:23;;;;;;;33.25;21.92;;;9.50;99.90;;;;;;5010694;28;20046;-51
2021/11/13 04:45:48;;;;;;;35.00;22.10;;;9.50;99.90;;;;;;5006391;28;20057;-50
2021/11/13 04:48:14;;;;;;;32.75;21.98;;;9.60;99.90;;;;;;5002975;28;20042;-50
2021/11/13 04:50:40;;;;;;;34.92;23.40;;;9.50;99.90;;;;;;5004074;28;20409;-50
2021/11/13 04:53:06;;;;;;;34.20;21.85;;;9.60;99.90;;;;;;5008189;28;20034;-48
2021/11/13 04:55:32;;;;;;;32.95;22.08;;;9.60;99.90;;;;;;5003824;28;20034;-49
2021/11/13 04:57:57;;;;;;;34.75;22.00;;;9.60;99.90;;;;;;5014254;28;20038;-51
2021/11/13 05:00:26;;;;;;;28.88;19.95;;;9.60;99.90;;;;;;5012896;28;20201;-52
2021/11/13 05:02:53;;;;;;;33.22;22.02;;;9.60;99.90;;;;;;4992263;28;20112;-50
2021/11/13 05:05:19;;;;;;;34.90;21.80;;;9.70;99.90;;;;;;4989663;28;20504;-53
2021/11/13 05:07:44;;;;;;;33.63;21.83;;;9.60;99.90;;;;;;4986265;28;20040;-52
2021/11/13 05:10:11;;;;;;;29.35;20.77;;;9.60;99.90;;;;;;5007758;28;20030;-53
2021/11/13 05:12:38;;;;;;;30.50;19.55;;;9.60;99.90;;;;;;5013808;28;20037;-50
2021/11/13 05:15:05;;;;;;;28.40;19.42;;;9.60;99.90;;;;;;4994074;28;20513;-49
2021/11/13 05:17:31;;;;;;;30.65;21.30;;;9.60;99.90;;;;;;5001545;28;20042;-49
2021/11/13 05:19:57;;;;;;;29.80;19.63;;;9.70;99.90;;;;;;5009686;28;20402;-49
2021/11/13 05:22:23;;;;;;;33.03;21.05;;;9.60;99.90;;;;;;5007234;28;20041;-49
2021/11/13 05:24:49;;;;;;;30.15;20.52;;;9.60;99.90;;;;;;5010237;28;20054;-52
2021/11/13 05:27:14;;;;;;;31.58;20.63;;;9.60;99.90;;;;;;5007109;28;20038;-50
2021/11/13 05:29:40;;;;;;;31.77;20.15;;;9.60;99.90;;;;;;5012714;28;20041;-51
2021/11/13 05:32:06;;;;;;;28.15;19.15;;;9.70;99.90;;;;;;5007933;28;20044;-50
2021/11/13 05:34:32;;;;;;;28.35;19.95;;;9.70;99.90;;;;;;5005766;28;20440;-50
2021/11/13 05:36:58;;;;;;;31.10;20.83;;;9.70;99.90;;;;;;5007323;28;20126;-50
2021/11/13 05:39:23;;;;;;;29.13;19.95;;;9.70;99.90;;;;;;5012623;28;20034;-49
2021/11/13 05:41:49;;;;;;;31.80;19.85;;;9.70;99.90;;;;;;5010277;28;20487;-49
2021/11/13 05:44:14;;;;;;;36.88;20.25;;;9.70;99.90;;;;;;5007896;28;20397;-49
2021/11/13 05:46:40;;;;;;;28.48;19.38;;;9.70;99.90;;;;;;5008204;28;20045;-52
2021/11/13 05:49:06;;;;;;;29.27;19.80;;;9.70;99.90;;;;;;5008808;28;20557;-49
2021/11/13 05:51:31;;;;;;;31.42;18.65;;;9.70;99.90;;;;;;5004548;28;20434;-49
2021/11/13 05:53:57;;;;;;;32.15;20.15;;;9.70;99.90;;;;;;5009226;28;20468;-50
2021/11/13 05:56:23;;;;;;;28.55;19.88;;;9.70;99.90;;;;;;5011091;28;20033;-49
2021/11/13 05:58:48;;;;;;;34.00;20.13;;;9.70;99.90;;;;;;5013027;28;20049;-49
2021/11/13 06:01:14;;;;;;;32.00;20.55;;;9.70;99.90;;;;;;5012218;28;20529;-51
2021/11/13 06:03:40;;;;;;;30.70;20.48;;;9.70;99.90;;;;;;5012897;28;20038;-49
2021/11/13 06:06:05;;;;;;;31.02;19.65;;;9.70;99.90;;;;;;5012363;28;20426;-49
2021/11/13 06:08:31;;;;;;;30.55;19.63;;;9.70;99.90;;;;;;5007122;28;20050;-49
2021/11/13 06:10:58;;;;;;;33.08;20.65;;;9.70;99.90;;;;;;5009340;28;20065;-49
2021/11/13 06:13:23;;;;;;;28.05;19.58;;;9.70;99.90;;;;;;4994541;28;20042;-50
2021/11/13 06:15:49;;;;;;;30.60;19.52;;;9.70;99.90;;;;;;5012367;28;20037;-49
2021/11/13 06:18:14;;;;;;;31.58;20.60;;;9.70;99.90;;;;;;5012192;28;20048;-50
2021/11/13 06:20:40;;;;;;;31.23;20.98;;;9.70;99.90;;;;;;5004358;28;20065;-50
2021/11/13 06:23:06;;;;;;;32.55;21.40;;;9.70;99.90;;;;;;5011605;28;20379;-50
2021/11/13 06:25:31;;;;;;;42.08;22.50;;;9.70;99.90;;;;;;5004260;28;20082;-50
2021/11/13 06:27:57;;;;;;;33.85;21.02;;;9.60;99.90;;;;;;4983736;28;20049;-51
2021/11/13 06:30:22;;;;;;;37.92;23.00;;;9.70;99.90;;;;;;5012129;28;20041;-50
2021/11/13 06:32:51;;;;;;;39.28;23.05;;;9.70;99.90;;;;;;5011031;28;20175;-49
2021/11/13 06:35:17;;;;;;;34.47;22.38;;;9.70;99.90;;;;;;4977967;28;20047;-50
2021/11/13 06:37:43;;;;;;;35.03;22.15;;;9.70;99.90;;;;;;5011484;28;20037;-49
2021/11/13 06:40:10;;;;;;;37.85;22.60;;;9.70;99.90;;;;;;5011795;28;20048;-49
2021/11/13 06:42:37;;;;;;;39.72;24.08;;;9.70;99.90;;;;;;5006250;28;20038;-50
2021/11/13 06:45:05;;;;;;;40.45;23.13;;;9.80;99.90;;;;;;5011160;28;20041;-49
2021/11/13 06:47:32;;;;;;;40.30;23.33;;;9.80;99.90;;;;;;5012022;28;20043;-49
2021/11/13 06:49:58;;;;;;;36.25;22.48;;;9.80;99.90;;;;;;4970368;28;20034;-50
2021/11/13 06:52:23;;;;;;;45.85;24.48;;;9.70;99.90;;;;;;5011970;28;20183;-52
2021/11/13 06:54:49;;;;;;;43.35;23.45;;;9.70;99.90;;;;;;4994159;28;20048;-50
2021/11/13 06:57:15;;;;;;;39.28;23.65;;;9.80;99.90;;;;;;5011825;28;20108;-53
2021/11/13 06:59:41;;;;;;;38.63;23.45;;;9.80;99.90;;;;;;5011773;28;20460;-50
2021/11/13 07:02:07;;;;;;;39.40;24.60;;;9.80;99.90;;;;;;5011398;28;20041;-50
2021/11/13 07:04:33;;;;;;;40.25;24.15;;;9.80;99.90;;;;;;5013210;28;20038;-53
2021/11/13 07:06:58;;;;;;;39.13;24.38;;;9.80;99.90;;;;;;5010658;28;20044;-50
2021/11/13 07:09:24;;;;;;;39.58;24.10;;;9.80;99.90;;;;;;5003310;28;20030;-53
2021/11/13 07:11:50;;;;;;;39.60;23.67;;;9.80;99.90;;;;;;5007193;28;20103;-54
2021/11/13 07:14:15;;;;;;;41.08;24.27;;;9.80;99.90;;;;;;5001275;28;20189;-54
2021/11/13 07:16:41;;;;;;;37.10;23.75;;;9.80;99.90;;;;;;5004546;28;20046;-52
2021/11/13 07:19:07;;;;;;;42.53;25.20;;;9.90;99.90;;;;;;5007081;28;20045;-51
2021/11/13 07:21:35;;;;;;;33.78;22.75;;;9.90;99.90;;;;;;4993758;28;20041;-55
2021/11/13 07:24:00;;;;;;;38.80;24.65;;;9.90;99.90;;;;;;5005991;28;20072;-55
2021/11/13 07:26:27;;;;;;;38.58;24.23;;;9.90;99.90;;;;;;5008230;28;20086;-54
2021/11/13 07:29:00;;;;;;;39.70;24.17;;;9.90;99.90;;;;;;5006840;28;20049;-55
2021/11/13 07:31:25;;;;;;;42.13;24.15;;;9.90;99.90;;;;;;5009036;28;20092;-54
2021/11/13 07:33:53;;;;;;;37.40;23.40;;;9.90;99.90;;;;;;5010832;28;20034;-55
2021/11/13 07:36:19;;;;;;;41.30;23.58;;;9.90;99.90;;;;;;5008688;28;20110;-53
2021/11/13 07:38:45;;;;;;;36.72;23.83;;;10.00;99.90;;;;;;5010072;28;20042;-53
2021/11/13 07:41:11;;;;;;;34.67;22.65;;;10.00;99.90;;;;;;5008940;28;20034;-51
2021/11/13 07:43:37;;;;;;;36.65;21.67;;;10.00;99.90;;;;;;5002955;28;20120;-54
2021/11/13 07:46:03;;;;;;;33.65;22.38;;;10.00;99.90;;;;;;4993108;28;20057;-53
2021/11/13 07:48:29;;;;;;;36.90;22.23;;;10.00;99.90;;;;;;5003651;28;20039;-55
2021/11/13 07:50:56;;;;;;;39.05;22.88;;;10.10;99.90;;;;;;5006196;28;20200;-55
2021/11/13 07:53:23;;;;;;;35.03;22.38;;;10.10;99.90;;;;;;4973808;28;20033;-55
2021/11/13 07:55:48;;;;;;;34.40;21.23;;;10.10;99.90;;;;;;5003565;28;20137;-56
2021/11/13 07:58:16;;;;;;;33.58;21.20;;;10.10;99.90;;;;;;5000995;28;20196;-52
2021/11/13 08:00:43;;;;;;;32.03;19.52;;;10.20;99.90;;;;;;5006622;28;20049;-54
2021/11/13 08:03:09;;;;;;;32.42;20.95;;;10.20;99.90;;;;;;4999656;28;20102;-55
2021/11/13 08:05:35;;;;;;;28.23;20.58;;;10.20;99.90;;;;;;5009556;28;20550;-54
2021/11/13 08:08:00;;;;;;;32.10;20.05;;;10.20;99.90;;;;;;4994441;28;20036;-53
2021/11/13 08:10:26;;;;;;;29.65;18.30;;;10.20;99.90;;;;;;4976346;28;20038;-53
2021/11/13 08:12:52;;;;;;;28.98;18.25;;;10.20;99.90;;;;;;4974575;28;20030;-53
2021/11/13 08:15:19;;;;;;;30.55;19.52;;;10.20;99.90;;;;;;4983699;28;20046;-53
2021/11/13 08:17:45;;;;;;;33.15;19.48;;;10.20;99.90;;;;;;4982418;28;20044;-52
2021/11/13 08:20:12;;;;;;;24.45;17.30;;;10.20;99.90;;;;;;4968136;28;20100;-53
2021/11/13 08:22:41;;;;;;;29.25;18.35;;;10.20;99.90;;;;;;4983630;28;20035;-54
2021/11/13 08:25:08;;;;;;;27.83;19.33;;;10.30;99.90;;;;;;5001349;28;20038;-53
2021/11/13 08:27:34;;;;;;;29.80;18.80;;;10.30;99.90;;;;;;5001340;28;20105;-54
2021/11/13 08:30:00;;;;;;;30.85;19.08;;;10.30;99.90;;;;;;5012205;28;20524;-54
2021/11/13 08:32:26;;;;;;;27.00;18.55;;;10.30;99.90;;;;;;5011175;28;20434;-51
2021/11/13 08:34:52;;;;;;;32.15;19.67;;;10.30;99.90;;;;;;4996717;28;20088;-54
2021/11/13 08:37:18;;;;;;;29.27;18.73;;;10.30;99.90;;;;;;5001089;28;20088;-52
2021/11/13 08:39:44;;;;;;;30.38;19.25;;;10.30;99.90;;;;;;4993746;28;20093;-50
2021/11/13 08:42:14;;;;;;;29.92;19.52;;;10.30;99.90;;;;;;4995147;28;20429;-52
2021/11/13 08:44:43;;;;;;;29.42;18.58;;;10.30;99.90;;;;;;4982057;28;20072;-53
2021/11/13 08:47:09;;;;;;;29.67;18.60;;;10.30;99.90;;;;;;4996551;28;20046;-53
2021/11/13 08:49:43;;;;;;;31.10;19.17;;;10.30;99.90;;;;;;5000003;28;20065;-52
2021/11/13 08:52:10;;;;;;;29.70;18.02;;;10.30;99.90;;;;;;5006518;28;20033;-53
2021/11/13 08:54:36;;;;;;;30.05;18.85;;;10.40;99.90;;;;;;5002689;28;20081;-51
2021/11/13 08:57:03;;;;;;;28.33;17.65;;;10.40;99.90;;;;;;5010304;28;20038;-53
2021/11/13 08:59:31;;;;;;;27.48;17.02;;;10.40;99.90;;;;;;5003524;28;20108;-54
2021/11/13 09:02:02;;;;;;;26.67;17.45;;;10.40;99.90;;;;;;4969106;28;20038;-51
2021/11/13 09:04:29;;;;;;;26.58;16.98;;;10.40;99.90;;;;;;5007788;28;20056;-53
2021/11/13 09:06:55;;;;;;;27.88;18.45;;;10.40;99.90;;;;;;4980849;28;20034;-51
2021/11/13 09:09:21;;;;;;;25.48;17.80;;;10.50;99.90;;;;;;5002040;28;20092;-49
2021/11/13 09:11:47;;;;;;;31.02;18.60;;;10.50;99.90;;;;;;5001519;28;20445;-52
2021/11/13 09:14:16;;;;;;;28.13;18.45;;;10.50;99.90;;;;;;5002458;28;20042;-52
2021/11/13 09:16:42;;;;;;;29.33;18.73;;;10.50;99.90;;;;;;5009879;28;20034;-54
2021/11/13 09:19:08;;;;;;;25.95;18.05;;;10.50;99.90;;;;;;5001121;28;20411;-51
2021/11/13 09:21:34;;;;;;;25.38;17.73;;;10.50;99.90;;;;;;5008815;28;20038;-53
2021/11/13 09:24:01;;;;;;;28.63;17.67;;;10.60;99.90;;;;;;5008174;28;20042;-53
2021/11/13 09:26:26;;;;;;;29.13;18.85;;;10.60;99.90;;;;;;5003313;28;20038;-53
2021/11/13 09:28:52;;;;;;;29.25;19.15;;;10.60;99.90;;;;;;5003514;28;20509;-53
2021/11/13 09:31:18;;;;;;;33.42;19.05;;;10.60;99.90;;;;;;4990177;28;20045;-53
2021/11/13 09:33:57;;;;;;;27.23;17.77;;;10.60;99.90;;;;;;5000462;28;20034;-52
2021/11/13 09:36:23;;;;;;;29.35;18.48;;;10.70;99.90;;;;;;4976273;28;20490;-52
2021/11/13 09:38:49;;;;;;;27.52;18.38;;;10.60;99.90;;;;;;5006806;28;20046;-53
2021/11/13 09:41:15;;;;;;;28.65;18.40;;;10.70;99.90;;;;;;5006093;28;20087;-50
2021/11/13 09:43:41;;;;;;;28.65;18.67;;;10.70;99.90;;;;;;5005296;28;20050;-47
2021/11/13 09:46:10;;;;;;;33.15;19.20;;;10.70;99.90;;;;;;5010894;28;20064;-48
2021/11/13 09:48:36;;;;;;;25.05;17.65;;;10.70;99.90;;;;;;5000789;28;20445;-47
2021/11/13 09:51:04;;;;;;;26.95;17.50;;;10.70;99.90;;;;;;5008752;28;20116;-52
2021/11/13 09:53:31;;;;;;;30.58;18.98;;;10.70;99.90;;;;;;5007296;28;20479;-53
2021/11/13 09:55:59;;;;;;;27.02;18.17;;;10.70;99.90;;;;;;5008192;28;20057;-51
2021/11/13 09:58:25;;;;;;;28.38;18.08;;;10.70;99.90;;;;;;5000372;28;20033;-49
2021/11/13 10:00:52;;;;;;;28.73;19.02;;;10.70;99.90;;;;;;5001654;28;20167;-51
2021/11/13 10:03:21;;;;;;;32.08;18.75;;;10.70;99.90;;;;;;5014226;23;20054;-48
2021/11/13 10:05:55;;;;;;;28.65;18.60;;;10.80;99.90;;;;;;5003718;28;20173;-52
2021/11/13 10:08:22;;;;;;;27.23;18.50;;;10.80;99.90;;;;;;5001545;28;22000;-47
2021/11/13 10:10:55;;;;;;;29.02;17.92;;;10.80;99.90;;;;;;5005511;28;20039;-47
2021/11/13 10:13:40;;;;;;;27.50;18.55;;;10.70;99.90;;;;;;4994142;28;20078;-47
2021/11/13 10:16:18;;;;;;;26.40;16.98;;;10.80;99.90;;;;;;4991723;28;20038;-47
2021/11/13 10:18:51;;;;;;;23.90;16.08;;;10.80;99.90;;;;;;4991148;28;20042;-49
2021/11/13 10:21:22;;;;;;;25.23;17.30;;;10.80;99.90;;;;;;4988270;28;20113;-51
2021/11/13 10:23:59;;;;;;;24.40;17.13;;;10.80;99.90;;;;;;4990462;28;20042;-48
2021/11/13 10:26:40;;;;;;;27.45;17.40;;;10.80;99.90;;;;;;4986597;28;20038;-47
2021/11/13 10:29:09;;;;;;;23.87;16.30;;;10.80;99.90;;;;;;4966555;28;20079;-48
2021/11/13 10:31:47;;;;;;;28.25;15.45;;;10.90;99.90;;;;;;4983086;28;20070;-48
2021/11/13 10:34:16;;;;;;;25.95;15.50;;;10.90;99.90;;;;;;4987560;28;20034;-50
2021/11/13 10:36:45;;;;;;;20.75;14.15;;;10.90;99.90;;;;;;4989484;28;20030;-50
2021/11/13 10:39:18;;;;;;;21.55;14.85;;;11.00;99.90;;;;;;4992209;28;20117;-49
2021/11/13 10:41:50;;;;;;;23.67;14.77;;;11.00;99.90;;;;;;4990010;28;20096;-48
2021/11/13 10:44:31;;;;;;;23.75;15.00;;;11.00;99.90;;;;;;4990097;28;20507;-47
2021/11/13 10:46:58;;;;;;;18.33;13.30;;;11.10;99.90;;;;;;4992371;28;20057;-49
2021/11/13 10:49:25;;;;;;;21.90;14.77;;;11.10;99.90;;;;;;4991551;28;20523;-48
2021/11/13 10:51:56;;;;;;;24.02;14.15;;;11.10;99.90;;;;;;4986185;28;20537;-49
2021/11/13 10:54:22;;;;;;;20.45;13.60;;;11.10;99.90;;;;;;4985050;28;20498;-48
2021/11/13 10:56:55;;;;;;;19.52;13.00;;;11.10;99.90;;;;;;4983534;28;20495;-48
2021/11/13 10:59:26;;;;;;;18.15;12.73;;;11.10;99.90;;;;;;4988203;28;20049;-51
2021/11/13 11:01:56;;;;;;;21.15;13.40;;;11.10;99.90;;;;;;4990491;28;20066;-48
2021/11/13 11:04:24;;;;;;;21.42;13.45;;;11.10;99.90;;;;;;4986193;28;20038;-49
2021/11/13 11:07:05;;;;;;;20.80;13.88;;;11.10;99.90;;;;;;4990657;28;20113;-47
2021/11/13 11:09:32;;;;;;;22.63;15.02;;;11.10;99.90;;;;;;4968823;28;20093;-50
2021/11/13 11:12:08;;;;;;;25.25;15.27;;;11.00;99.90;;;;;;4992165;28;20035;-48
2021/11/13 11:14:38;;;;;;;24.13;14.43;;;11.10;99.90;;;;;;4991642;28;20494;-48
2021/11/13 11:17:15;;;;;;;22.55;16.15;;;11.10;99.90;;;;;;4984769;28;20100;-49
2021/11/13 11:19:47;;;;;;;26.27;16.40;;;11.10;99.90;;;;;;4991313;28;20038;-50
2021/11/13 11:22:14;;;;;;;29.00;16.80;;;11.10;99.90;;;;;;4991802;28;20088;-47
2021/11/13 11:24:41;;;;;;;27.00;17.05;;;11.10;99.90;;;;;;4988030;28;20043;-51
2021/11/13 11:27:20;;;;;;;24.88;17.30;;;11.10;99.90;;;;;;4986329;28;20042;-48
2021/11/13 11:29:48;;;;;;;27.73;18.10;;;11.20;99.90;;;;;;4981254;28;20039;-50
2021/11/13 11:32:15;;;;;;;28.30;17.65;;;11.20;99.90;;;;;;4986749;28;20495;-49
2021/11/13 11:34:43;;;;;;;26.42;17.38;;;11.20;99.90;;;;;;4982801;28;20046;-47
2021/11/13 11:37:23;;;;;;;28.52;16.92;;;11.20;99.90;;;;;;4987920;28;20034;-50
2021/11/13 11:39:57;;;;;;;27.50;17.42;;;11.20;99.90;;;;;;4967525;28;20054;-49
2021/11/13 11:42:25;;;;;;;32.38;17.77;;;11.20;99.90;;;;;;4988234;28;20054;-48
2021/11/13 11:44:53;;;;;;;30.00;18.48;;;11.20;99.90;;;;;;4983428;28;20049;-47
2021/11/13 11:47:20;;;;;;;29.55;18.30;;;11.20;99.90;;;;;;4984337;28;20042;-48
2021/11/13 11:49:49;;;;;;;32.05;18.50;;;11.20;99.90;;;;;;4986746;28;20068;-47
2021/11/13 11:52:17;;;;;;;33.83;19.02;;;11.10;99.90;;;;;;4992100;28;20042;-52
2021/11/13 11:54:45;;;;;;;29.38;18.70;;;11.10;99.90;;;;;;4989748;28;20169;-48
2021/11/13 11:57:11;;;;;;;28.67;17.33;;;11.10;99.90;;;;;;4990061;28;20026;-51
2021/11/13 11:59:39;;;;;;;32.85;19.42;;;11.10;99.90;;;;;;4991609;28;20047;-51
2021/11/13 12:02:17;;;;;;;29.90;18.50;;;11.10;99.90;;;;;;4993299;28;20502;-50
2021/11/13 12:04:45;;;;;;;34.33;18.38;;;11.10;99.90;;;;;;4995752;28;20049;-51
2021/11/13 12:07:25;;;;;;;36.97;18.02;;;11.10;99.90;;;;;;4995073;28;20494;-50
2021/11/13 12:10:12;;;;;;;32.55;18.10;;;11.10;99.90;;;;;;4995336;28;20034;-52
2021/11/13 12:12:59;;;;;;;30.80;18.02;;;11.10;99.90;;;;;;4986595;28;20130;-50
2021/11/13 12:15:25;;;;;;;32.00;18.08;;;11.10;99.90;;;;;;4990741;28;20043;-52
2021/11/13 12:17:54;;;;;;;29.70;16.85;;;11.10;99.90;;;;;;4986146;28;20507;-51
2021/11/13 12:20:28;;;;;;;32.55;18.10;;;11.10;99.90;;;;;;4991332;28;20080;-48
2021/11/13 12:22:59;;;;;;;37.92;18.48;;;11.10;99.90;;;;;;4987805;28;20050;-51
2021/11/13 12:25:33;;;;;;;31.65;17.70;;;11.10;99.90;;;;;;4995073;28;20117;-50
2021/11/13 12:28:15;;;;;;;30.70;17.15;;;11.10;99.90;;;;;;4989082;28;20045;-53
2021/11/13 12:31:06;;;;;;;29.00;16.75;;;11.20;99.90;;;;;;4994971;28;20038;-53
2021/11/13 12:33:32;;;;;;;33.67;17.10;;;11.20;99.90;;;;;;4991529;28;20518;-50
2021/11/13 12:36:19;;;;;;;31.55;17.02;;;11.20;99.90;;;;;;4995032;28;20038;-48
2021/11/13 12:39:03;;;;;;;30.45;16.42;;;11.20;99.90;;;;;;4988815;28;20109;-52